This is the latest recevied weather packets stored in our database for station/object LA9UTA-13. If no packets are shown the sender has not sent any weather packets the latest 10 day(s).
| Time | Temp. | Humidity | Pressure | Rain* | Wind** | Luminosity | Snow |
|---|---|---|---|---|---|---|---|
| 1788473409 | 7.78° C | 86% | 1003.2 hPa | 0 mm | - | 0 W/m² | - |
| 1788472209 | 7.78° C | 87% | 1004.4 hPa | 0 mm | - | 0 W/m² | - |
| 1788471010 | 8.33° C | 86% | 1004.3 hPa | 0 mm | - | 0 W/m² | - |
| 1788469809 | 8.89° C | 85% | 1004.3 hPa | 0 mm | - | 0 W/m² | - |
| 1788467409 | 10° C | 80% | 1004.2 hPa | 0 mm | - | 0 W/m² | - |
| 1788466209 | 10.56° C | 78% | 1004.1 hPa | 0 mm | - | 0 W/m² | - |
| 1788449409 | 18.89° C | 46% | 1004.4 hPa | 0 mm | - | 182 W/m² | - |
| 1788447009 | 17.78° C | 49% | 1005.5 hPa | 0 mm | - | 138 W/m² | - |
| 1788443409 | 20.56° C | 41% | 1004.2 hPa | 0 mm | - | 93 W/m² | - |
| 1788442209 | 17.78° C | 45% | 1004.5 hPa | 0 mm | - | 97 W/m² | - |
| 1788441012 | 17.22° C | 46% | 1005.5 hPa | 0 mm | - | 115 W/m² | - |
| 1788439809 | 16.67° C | 47% | 1005.6 hPa | 0 mm | - | 102 W/m² | - |
| 1788438609 | 18.33° C | 47% | 1005.4 hPa | 0 mm | - | 74 W/m² | - |
| 1788436209 | 16.67° C | 51% | 1005.6 hPa | 0 mm | - | 208 W/m² | - |
| 1788433809 | 17.78° C | 51% | 1005.5 hPa | 0 mm | - | 445 W/m² | - |
| 1788431409 | 17.78° C | 53% | 1005.5 hPa | 0 mm | - | 418 W/m² | - |
| 1788430209 | 18.33° C | 46% | 1005.4 hPa | 0 mm | - | 407 W/m² | - |
| 1788429079 | 15° C | 55% | 1005.7 hPa | 0 mm | - | 388 W/m² | - |
| 1788429009 | 15° C | 55% | 1005.7 hPa | 0 mm | - | 388 W/m² | - |
| 1788427809 | 14.44° C | 58% | 1005.8 hPa | 0 mm | - | 369 W/m² | - |
| 1788426609 | 15.56° C | 56% | 1005.7 hPa | 0 mm | - | 348 W/m² | - |
| 1788425409 | 13.89° C | 60% | 1005.8 hPa | 0 mm | - | 315 W/m² | - |
| 1788423009 | 16.11° C | 56% | 1005.6 hPa | 0 mm | - | 266 W/m² | - |
| 1788421809 | 14.44° C | 58% | 1005.8 hPa | 0 mm | - | 228 W/m² | - |
| 1788420609 | 13.33° C | 63% | 1005.8 hPa | 0 mm | - | 198 W/m² | - |
* Rain latest hour (hover to see other rain measurements)
** Current wind speed in m/s (hover to see current wind gust speed)